sensor_id;sensor_type;location;lat;lon;timestamp;temperature;humidity
26035;DHT22;13809;48.632;11.576;2023-07-13T00:01:02;22.00;48.50
26035;DHT22;13809;48.632;11.576;2023-07-13T00:06:06;22.00;47.80
26035;DHT22;13809;48.632;11.576;2023-07-13T00:11:11;22.00;48.00
26035;DHT22;13809;48.632;11.576;2023-07-13T00:16:15;22.00;49.00
26035;DHT22;13809;48.632;11.576;2023-07-13T00:21:18;22.10;48.50
26035;DHT22;13809;48.632;11.576;2023-07-13T00:26:23;22.10;48.50
26035;DHT22;13809;48.632;11.576;2023-07-13T00:31:26;22.20;49.40
26035;DHT22;13809;48.632;11.576;2023-07-13T00:36:30;22.20;48.60
26035;DHT22;13809;48.632;11.576;2023-07-13T00:41:35;22.20;49.00
26035;DHT22;13809;48.632;11.576;2023-07-13T00:46:39;22.30;49.30
26035;DHT22;13809;48.632;11.576;2023-07-13T00:51:48;22.50;48.70
26035;DHT22;13809;48.632;11.576;2023-07-13T00:56:55;22.50;50.00
26035;DHT22;13809;48.632;11.576;2023-07-13T01:02:00;22.60;49.60
26035;DHT22;13809;48.632;11.576;2023-07-13T01:07:06;22.60;48.60
26035;DHT22;13809;48.632;11.576;2023-07-13T01:12:11;22.60;49.20
26035;DHT22;13809;48.632;11.576;2023-07-13T01:17:15;22.60;49.40
26035;DHT22;13809;48.632;11.576;2023-07-13T01:22:21;22.60;48.60
26035;DHT22;13809;48.632;11.576;2023-07-13T01:27:27;22.70;49.30
26035;DHT22;13809;48.632;11.576;2023-07-13T01:32:30;22.70;48.60
26035;DHT22;13809;48.632;11.576;2023-07-13T01:37:37;22.70;48.60
26035;DHT22;13809;48.632;11.576;2023-07-13T01:42:40;22.70;49.30
26035;DHT22;13809;48.632;11.576;2023-07-13T01:47:44;22.70;48.50
26035;DHT22;13809;48.632;11.576;2023-07-13T01:52:49;22.80;48.70
26035;DHT22;13809;48.632;11.576;2023-07-13T01:57:52;22.80;49.30
26035;DHT22;13809;48.632;11.576;2023-07-13T02:02:55;22.80;48.50
26035;DHT22;13809;48.632;11.576;2023-07-13T02:08:00;22.90;48.50
26035;DHT22;13809;48.632;11.576;2023-07-13T02:13:04;22.90;48.80
26035;DHT22;13809;48.632;11.576;2023-07-13T02:18:07;22.90;48.40
26035;DHT22;13809;48.632;11.576;2023-07-13T02:23:12;22.80;48.20
26035;DHT22;13809;48.632;11.576;2023-07-13T02:28:15;22.80;49.20
26035;DHT22;13809;48.632;11.576;2023-07-13T02:33:18;22.70;48.80
26035;DHT22;13809;48.632;11.576;2023-07-13T02:38:23;22.60;48.90
26035;DHT22;13809;48.632;11.576;2023-07-13T02:43:26;22.50;49.40
26035;DHT22;13809;48.632;11.576;2023-07-13T02:48:29;22.60;49.00
26035;DHT22;13809;48.632;11.576;2023-07-13T02:53:34;22.60;48.90
26035;DHT22;13809;48.632;11.576;2023-07-13T02:58:38;22.50;49.50
26035;DHT22;13809;48.632;11.576;2023-07-13T03:03:41;22.40;49.20
26035;DHT22;13809;48.632;11.576;2023-07-13T03:08:46;22.30;49.30
26035;DHT22;13809;48.632;11.576;2023-07-13T03:13:51;22.30;50.50
26035;DHT22;13809;48.632;11.576;2023-07-13T03:18:55;22.30;49.70
26035;DHT22;13809;48.632;11.576;2023-07-13T03:23:59;22.20;49.80
26035;DHT22;13809;48.632;11.576;2023-07-13T03:29:03;22.20;50.70
26035;DHT22;13809;48.632;11.576;2023-07-13T03:34:06;22.20;50.10
26035;DHT22;13809;48.632;11.576;2023-07-13T03:39:11;22.20;50.00
26035;DHT22;13809;48.632;11.576;2023-07-13T03:44:16;22.20;50.70
26035;DHT22;13809;48.632;11.576;2023-07-13T03:49:19;22.20;50.70
26035;DHT22;13809;48.632;11.576;2023-07-13T03:54:24;22.20;49.70
26035;DHT22;13809;48.632;11.576;2023-07-13T03:59:27;22.20;50.00
26035;DHT22;13809;48.632;11.576;2023-07-13T04:04:30;22.20;49.30
26035;DHT22;13809;48.632;11.576;2023-07-13T04:09:35;22.20;49.40
26035;DHT22;13809;48.632;11.576;2023-07-13T04:14:38;22.20;49.40
26035;DHT22;13809;48.632;11.576;2023-07-13T04:19:41;22.20;48.70
26035;DHT22;13809;48.632;11.576;2023-07-13T04:24:46;22.20;48.30
26035;DHT22;13809;48.632;11.576;2023-07-13T04:29:49;22.30;48.40
26035;DHT22;13809;48.632;11.576;2023-07-13T04:34:53;22.30;48.10
26035;DHT22;13809;48.632;11.576;2023-07-13T04:39:59;22.20;47.80
26035;DHT22;13809;48.632;11.576;2023-07-13T04:45:02;22.20;47.80
26035;DHT22;13809;48.632;11.576;2023-07-13T04:50:06;22.10;48.00
26035;DHT22;13809;48.632;11.576;2023-07-13T04:55:11;22.10;48.10
26035;DHT22;13809;48.632;11.576;2023-07-13T05:00:14;22.10;48.00
26035;DHT22;13809;48.632;11.576;2023-07-13T05:05:18;22.10;47.90
26035;DHT22;13809;48.632;11.576;2023-07-13T05:10:23;22.00;47.50
26035;DHT22;13809;48.632;11.576;2023-07-13T05:15:27;22.10;47.70
26035;DHT22;13809;48.632;11.576;2023-07-13T05:20:30;22.00;47.40
26035;DHT22;13809;48.632;11.576;2023-07-13T05:25:34;22.10;47.50
26035;DHT22;13809;48.632;11.576;2023-07-13T05:30:37;22.10;47.20
26035;DHT22;13809;48.632;11.576;2023-07-13T05:35:41;22.10;47.10
26035;DHT22;13809;48.632;11.576;2023-07-13T05:40:45;22.10;46.70
26035;DHT22;13809;48.632;11.576;2023-07-13T05:45:50;22.10;46.80
26035;DHT22;13809;48.632;11.576;2023-07-13T05:50:54;22.10;46.40
26035;DHT22;13809;48.632;11.576;2023-07-13T05:55:59;22.10;46.60
26035;DHT22;13809;48.632;11.576;2023-07-13T06:01:05;22.10;46.10
26035;DHT22;13809;48.632;11.576;2023-07-13T06:06:10;22.10;46.00
26035;DHT22;13809;48.632;11.576;2023-07-13T06:11:19;22.20;46.10
26035;DHT22;13809;48.632;11.576;2023-07-13T06:16:23;22.20;45.90
26035;DHT22;13809;48.632;11.576;2023-07-13T06:21:26;22.20;46.10
26035;DHT22;13809;48.632;11.576;2023-07-13T06:26:31;22.30;45.90
26035;DHT22;13809;48.632;11.576;2023-07-13T06:31:34;22.30;45.10
26035;DHT22;13809;48.632;11.576;2023-07-13T06:36:38;22.40;44.70
26035;DHT22;13809;48.632;11.576;2023-07-13T06:41:42;22.50;44.70
26035;DHT22;13809;48.632;11.576;2023-07-13T06:46:46;22.50;44.10
26035;DHT22;13809;48.632;11.576;2023-07-13T06:51:49;22.60;44.30
26035;DHT22;13809;48.632;11.576;2023-07-13T06:56:53;22.60;44.00
26035;DHT22;13809;48.632;11.576;2023-07-13T07:01:57;22.60;43.00
26035;DHT22;13809;48.632;11.576;2023-07-13T07:07:00;22.80;43.70
26035;DHT22;13809;48.632;11.576;2023-07-13T07:12:05;22.80;43.30
26035;DHT22;13809;48.632;11.576;2023-07-13T07:17:08;22.90;42.50
26035;DHT22;13809;48.632;11.576;2023-07-13T07:22:12;23.10;42.40
26035;DHT22;13809;48.632;11.576;2023-07-13T07:27:16;23.20;42.50
26035;DHT22;13809;48.632;11.576;2023-07-13T07:32:22;23.30;41.20
26035;DHT22;13809;48.632;11.576;2023-07-13T07:37:28;23.40;40.80
26035;DHT22;13809;48.632;11.576;2023-07-13T07:42:36;23.50;41.00
26035;DHT22;13809;48.632;11.576;2023-07-13T07:47:39;23.50;40.40
26035;DHT22;13809;48.632;11.576;2023-07-13T07:52:43;23.50;40.20
26035;DHT22;13809;48.632;11.576;2023-07-13T07:57:48;23.50;40.60
26035;DHT22;13809;48.632;11.576;2023-07-13T08:02:54;23.60;40.10
26035;DHT22;13809;48.632;11.576;2023-07-13T08:08:17;23.80;40.30
26035;DHT22;13809;48.632;11.576;2023-07-13T08:13:22;23.80;40.40
26035;DHT22;13809;48.632;11.576;2023-07-13T08:18:25;23.90;39.90
26035;DHT22;13809;48.632;11.576;2023-07-13T08:23:29;23.90;40.40
26035;DHT22;13809;48.632;11.576;2023-07-13T08:28:36;24.00;40.90
26035;DHT22;13809;48.632;11.576;2023-07-13T08:33:39;24.00;40.00
26035;DHT22;13809;48.632;11.576;2023-07-13T08:38:42;24.10;40.90
26035;DHT22;13809;48.632;11.576;2023-07-13T08:43:49;24.20;40.20
26035;DHT22;13809;48.632;11.576;2023-07-13T08:48:56;24.30;38.20
26035;DHT22;13809;48.632;11.576;2023-07-13T08:54:03;24.50;36.70
26035;DHT22;13809;48.632;11.576;2023-07-13T08:59:13;24.70;36.10
26035;DHT22;13809;48.632;11.576;2023-07-13T09:04:20;24.80;35.40
26035;DHT22;13809;48.632;11.576;2023-07-13T09:09:35;24.90;37.20
26035;DHT22;13809;48.632;11.576;2023-07-13T09:14:45;25.10;33.90
26035;DHT22;13809;48.632;11.576;2023-07-13T09:19:56;25.20;34.10
26035;DHT22;13809;48.632;11.576;2023-07-13T09:25:04;25.30;33.30
26035;DHT22;13809;48.632;11.576;2023-07-13T09:30:36;25.40;34.30
26035;DHT22;13809;48.632;11.576;2023-07-13T09:35:40;25.60;32.90
26035;DHT22;13809;48.632;11.576;2023-07-13T09:40:56;25.70;33.90
26035;DHT22;13809;48.632;11.576;2023-07-13T09:46:03;25.80;30.30
26035;DHT22;13809;48.632;11.576;2023-07-13T09:51:14;25.90;32.40
26035;DHT22;13809;48.632;11.576;2023-07-13T09:56:22;25.90;28.70
26035;DHT22;13809;48.632;11.576;2023-07-13T10:01:34;25.90;31.90
26035;DHT22;13809;48.632;11.576;2023-07-13T10:06:39;26.00;29.20
26035;DHT22;13809;48.632;11.576;2023-07-13T10:11:45;26.10;32.60
26035;DHT22;13809;48.632;11.576;2023-07-13T10:16:52;26.20;32.50
26035;DHT22;13809;48.632;11.576;2023-07-13T10:21:57;26.30;30.80
26035;DHT22;13809;48.632;11.576;2023-07-13T10:27:05;26.40;31.00
26035;DHT22;13809;48.632;11.576;2023-07-13T10:32:14;26.50;30.30
26035;DHT22;13809;48.632;11.576;2023-07-13T10:37:20;26.70;29.60
26035;DHT22;13809;48.632;11.576;2023-07-13T10:42:45;26.70;29.50
26035;DHT22;13809;48.632;11.576;2023-07-13T10:47:52;26.70;27.80
26035;DHT22;13809;48.632;11.576;2023-07-13T10:53:02;26.70;28.40
26035;DHT22;13809;48.632;11.576;2023-07-13T10:58:14;26.70;28.00
26035;DHT22;13809;48.632;11.576;2023-07-13T11:03:22;26.70;27.90
26035;DHT22;13809;48.632;11.576;2023-07-13T11:08:34;26.70;29.60
26035;DHT22;13809;48.632;11.576;2023-07-13T11:13:57;26.80;29.40
26035;DHT22;13809;48.632;11.576;2023-07-13T11:24:52;27.00;26.20
26035;DHT22;13809;48.632;11.576;2023-07-13T11:30:08;27.10;27.00
26035;DHT22;13809;48.632;11.576;2023-07-13T11:35:19;27.10;27.00
26035;DHT22;13809;48.632;11.576;2023-07-13T11:40:27;27.10;28.10
26035;DHT22;13809;48.632;11.576;2023-07-13T11:45:32;27.30;28.00
26035;DHT22;13809;48.632;11.576;2023-07-13T11:50:55;27.40;28.20
26035;DHT22;13809;48.632;11.576;2023-07-13T11:56:00;27.50;25.80
26035;DHT22;13809;48.632;11.576;2023-07-13T12:01:04;27.50;27.10
26035;DHT22;13809;48.632;11.576;2023-07-13T12:06:24;27.60;26.90
26035;DHT22;13809;48.632;11.576;2023-07-13T12:11:35;27.50;26.10
26035;DHT22;13809;48.632;11.576;2023-07-13T12:16:43;27.60;25.20
26035;DHT22;13809;48.632;11.576;2023-07-13T12:21:47;27.60;28.00
26035;DHT22;13809;48.632;11.576;2023-07-13T12:26:54;27.60;27.20
26035;DHT22;13809;48.632;11.576;2023-07-13T12:31:58;27.70;26.00
26035;DHT22;13809;48.632;11.576;2023-07-13T12:37:02;27.70;26.40
26035;DHT22;13809;48.632;11.576;2023-07-13T12:42:19;27.70;26.70
26035;DHT22;13809;48.632;11.576;2023-07-13T12:47:25;27.70;26.40
26035;DHT22;13809;48.632;11.576;2023-07-13T12:52:30;27.70;26.90
26035;DHT22;13809;48.632;11.576;2023-07-13T12:57:41;27.70;25.70
26035;DHT22;13809;48.632;11.576;2023-07-13T13:02:45;27.70;25.60
26035;DHT22;13809;48.632;11.576;2023-07-13T13:07:48;27.70;26.40
26035;DHT22;13809;48.632;11.576;2023-07-13T13:12:53;27.60;26.70
26035;DHT22;13809;48.632;11.576;2023-07-13T13:17:56;27.60;25.50
26035;DHT22;13809;48.632;11.576;2023-07-13T13:23:00;27.70;26.00
26035;DHT22;13809;48.632;11.576;2023-07-13T13:28:05;27.70;25.40
26035;DHT22;13809;48.632;11.576;2023-07-13T13:33:16;27.70;24.80
26035;DHT22;13809;48.632;11.576;2023-07-13T13:38:23;27.60;24.80
26035;DHT22;13809;48.632;11.576;2023-07-13T13:43:29;27.70;24.80
26035;DHT22;13809;48.632;11.576;2023-07-13T13:48:34;27.70;24.80
26035;DHT22;13809;48.632;11.576;2023-07-13T13:53:41;27.70;25.00
26035;DHT22;13809;48.632;11.576;2023-07-13T13:58:46;27.80;25.10
26035;DHT22;13809;48.632;11.576;2023-07-13T14:03:49;27.90;24.60
26035;DHT22;13809;48.632;11.576;2023-07-13T14:08:53;28.00;24.60
26035;DHT22;13809;48.632;11.576;2023-07-13T14:13:59;28.10;24.20
26035;DHT22;13809;48.632;11.576;2023-07-13T14:19:04;28.20;23.20
26035;DHT22;13809;48.632;11.576;2023-07-13T14:24:09;28.20;23.80
26035;DHT22;13809;48.632;11.576;2023-07-13T14:29:16;28.30;23.60
26035;DHT22;13809;48.632;11.576;2023-07-13T14:34:24;28.40;22.70
26035;DHT22;13809;48.632;11.576;2023-07-13T14:39:27;28.40;23.20
26035;DHT22;13809;48.632;11.576;2023-07-13T14:44:32;28.40;23.30
26035;DHT22;13809;48.632;11.576;2023-07-13T14:49:37;28.50;22.80
26035;DHT22;13809;48.632;11.576;2023-07-13T14:54:41;28.60;22.50
26035;DHT22;13809;48.632;11.576;2023-07-13T14:59:47;28.70;22.20
26035;DHT22;13809;48.632;11.576;2023-07-13T15:04:53;28.80;21.50
26035;DHT22;13809;48.632;11.576;2023-07-13T15:09:57;28.70;21.50
26035;DHT22;13809;48.632;11.576;2023-07-13T15:15:01;28.70;22.10
26035;DHT22;13809;48.632;11.576;2023-07-13T15:20:11;28.60;21.30
26035;DHT22;13809;48.632;11.576;2023-07-13T15:25:19;28.60;20.80
26035;DHT22;13809;48.632;11.576;2023-07-13T15:30:25;28.60;20.40
26035;DHT22;13809;48.632;11.576;2023-07-13T15:35:30;28.50;20.90
26035;DHT22;13809;48.632;11.576;2023-07-13T15:40:33;28.60;21.60
26035;DHT22;13809;48.632;11.576;2023-07-13T15:45:38;28.50;21.20
26035;DHT22;13809;48.632;11.576;2023-07-13T15:50:44;28.60;20.40
26035;DHT22;13809;48.632;11.576;2023-07-13T15:55:50;28.60;20.40
26035;DHT22;13809;48.632;11.576;2023-07-13T16:00:55;28.60;20.40
26035;DHT22;13809;48.632;11.576;2023-07-13T16:05:59;28.70;20.40
26035;DHT22;13809;48.632;11.576;2023-07-13T16:11:02;28.70;20.40
26035;DHT22;13809;48.632;11.576;2023-07-13T16:16:10;28.80;20.50
26035;DHT22;13809;48.632;11.576;2023-07-13T16:21:14;28.80;18.60
26035;DHT22;13809;48.632;11.576;2023-07-13T16:26:26;28.80;19.90
26035;DHT22;13809;48.632;11.576;2023-07-13T16:31:32;28.80;17.10
26035;DHT22;13809;48.632;11.576;2023-07-13T16:36:36;28.80;18.20
26035;DHT22;13809;48.632;11.576;2023-07-13T16:41:40;28.80;19.30
26035;DHT22;13809;48.632;11.576;2023-07-13T16:46:47;28.90;19.00
26035;DHT22;13809;48.632;11.576;2023-07-13T16:51:51;28.90;18.60
26035;DHT22;13809;48.632;11.576;2023-07-13T16:56:55;29.00;18.70
26035;DHT22;13809;48.632;11.576;2023-07-13T17:02:01;29.10;18.70
26035;DHT22;13809;48.632;11.576;2023-07-13T17:07:09;29.10;17.60
26035;DHT22;13809;48.632;11.576;2023-07-13T17:12:12;29.10;17.00
26035;DHT22;13809;48.632;11.576;2023-07-13T17:17:19;29.10;17.50
26035;DHT22;13809;48.632;11.576;2023-07-13T17:22:25;29.00;16.50
26035;DHT22;13809;48.632;11.576;2023-07-13T17:27:30;29.00;17.50
26035;DHT22;13809;48.632;11.576;2023-07-13T17:32:36;28.90;17.80
26035;DHT22;13809;48.632;11.576;2023-07-13T17:37:39;28.80;17.30
26035;DHT22;13809;48.632;11.576;2023-07-13T17:42:42;28.80;17.80
26035;DHT22;13809;48.632;11.576;2023-07-13T17:47:47;28.80;17.50
26035;DHT22;13809;48.632;11.576;2023-07-13T17:52:51;28.70;17.00
26035;DHT22;13809;48.632;11.576;2023-07-13T17:57:54;28.60;17.70
26035;DHT22;13809;48.632;11.576;2023-07-13T18:03:01;28.60;17.90
26035;DHT22;13809;48.632;11.576;2023-07-13T18:08:18;28.60;17.50
26035;DHT22;13809;48.632;11.576;2023-07-13T18:13:23;28.50;17.10
26035;DHT22;13809;48.632;11.576;2023-07-13T18:18:29;28.50;18.10
26035;DHT22;13809;48.632;11.576;2023-07-13T18:23:34;28.40;18.40
26035;DHT22;13809;48.632;11.576;2023-07-13T18:28:37;28.40;19.00
26035;DHT22;13809;48.632;11.576;2023-07-13T18:33:43;28.30;19.20
26035;DHT22;13809;48.632;11.576;2023-07-13T18:38:48;28.20;19.50
26035;DHT22;13809;48.632;11.576;2023-07-13T18:43:51;28.20;19.70
26035;DHT22;13809;48.632;11.576;2023-07-13T18:48:56;28.10;19.80
26035;DHT22;13809;48.632;11.576;2023-07-13T18:53:59;28.00;20.10
26035;DHT22;13809;48.632;11.576;2023-07-13T18:59:02;27.90;20.00
26035;DHT22;13809;48.632;11.576;2023-07-13T19:04:27;27.70;19.90
26035;DHT22;13809;48.632;11.576;2023-07-13T19:09:31;27.50;19.80
26035;DHT22;13809;48.632;11.576;2023-07-13T19:14:35;27.40;20.00
26035;DHT22;13809;48.632;11.576;2023-07-13T19:19:39;27.20;20.40
26035;DHT22;13809;48.632;11.576;2023-07-13T19:24:43;27.10;20.90
26035;DHT22;13809;48.632;11.576;2023-07-13T19:29:46;27.00;20.90
26035;DHT22;13809;48.632;11.576;2023-07-13T19:34:51;26.90;20.90
26035;DHT22;13809;48.632;11.576;2023-07-13T19:39:56;26.70;21.00
26035;DHT22;13809;48.632;11.576;2023-07-13T19:44:59;26.60;21.50
26035;DHT22;13809;48.632;11.576;2023-07-13T19:50:05;26.30;21.70
26035;DHT22;13809;48.632;11.576;2023-07-13T19:55:13;25.90;22.30
26035;DHT22;13809;48.632;11.576;2023-07-13T20:00:19;25.50;22.70
26035;DHT22;13809;48.632;11.576;2023-07-13T20:05:24;25.10;23.40
26035;DHT22;13809;48.632;11.576;2023-07-13T20:10:29;24.70;23.90
26035;DHT22;13809;48.632;11.576;2023-07-13T20:15:34;24.50;24.00
26035;DHT22;13809;48.632;11.576;2023-07-13T20:20:40;24.40;24.30
26035;DHT22;13809;48.632;11.576;2023-07-13T20:25:49;24.40;25.10
26035;DHT22;13809;48.632;11.576;2023-07-13T20:30:52;24.40;24.70
26035;DHT22;13809;48.632;11.576;2023-07-13T20:36:02;24.30;24.90
26035;DHT22;13809;48.632;11.576;2023-07-13T20:41:08;24.30;26.60
26035;DHT22;13809;48.632;11.576;2023-07-13T20:46:15;24.30;25.90
26035;DHT22;13809;48.632;11.576;2023-07-13T20:51:20;24.40;26.10
26035;DHT22;13809;48.632;11.576;2023-07-13T20:56:27;24.40;26.30
26035;DHT22;13809;48.632;11.576;2023-07-13T21:01:32;24.50;26.40
26035;DHT22;13809;48.632;11.576;2023-07-13T21:06:37;24.50;26.00
26035;DHT22;13809;48.632;11.576;2023-07-13T21:11:41;24.50;26.50
26035;DHT22;13809;48.632;11.576;2023-07-13T21:16:44;24.50;26.20
26035;DHT22;13809;48.632;11.576;2023-07-13T21:21:48;24.50;26.30
26035;DHT22;13809;48.632;11.576;2023-07-13T21:26:51;24.60;27.20
26035;DHT22;13809;48.632;11.576;2023-07-13T21:31:55;24.60;27.00
26035;DHT22;13809;48.632;11.576;2023-07-13T21:36:59;24.60;27.00
26035;DHT22;13809;48.632;11.576;2023-07-13T21:42:03;24.50;27.30
26035;DHT22;13809;48.632;11.576;2023-07-13T21:47:07;24.50;27.10
26035;DHT22;13809;48.632;11.576;2023-07-13T21:52:16;24.50;27.60
26035;DHT22;13809;48.632;11.576;2023-07-13T21:57:19;24.50;28.40
26035;DHT22;13809;48.632;11.576;2023-07-13T22:02:22;24.50;27.30
26035;DHT22;13809;48.632;11.576;2023-07-13T22:07:27;24.40;27.30
26035;DHT22;13809;48.632;11.576;2023-07-13T22:12:30;24.40;27.80
26035;DHT22;13809;48.632;11.576;2023-07-13T22:17:33;24.30;27.80
26035;DHT22;13809;48.632;11.576;2023-07-13T22:22:38;24.30;28.20
26035;DHT22;13809;48.632;11.576;2023-07-13T22:27:42;24.30;28.20
26035;DHT22;13809;48.632;11.576;2023-07-13T22:32:46;24.30;28.20
26035;DHT22;13809;48.632;11.576;2023-07-13T22:37:52;24.30;28.20
26035;DHT22;13809;48.632;11.576;2023-07-13T22:43:00;24.20;28.20
26035;DHT22;13809;48.632;11.576;2023-07-13T22:48:04;24.10;28.10
26035;DHT22;13809;48.632;11.576;2023-07-13T22:53:11;24.00;28.00
26035;DHT22;13809;48.632;11.576;2023-07-13T22:58:15;23.90;28.40
26035;DHT22;13809;48.632;11.576;2023-07-13T23:03:18;23.80;27.90
26035;DHT22;13809;48.632;11.576;2023-07-13T23:08:23;23.80;28.10
26035;DHT22;13809;48.632;11.576;2023-07-13T23:13:26;23.70;28.50
26035;DHT22;13809;48.632;11.576;2023-07-13T23:18:30;23.60;27.80
26035;DHT22;13809;48.632;11.576;2023-07-13T23:23:34;23.50;28.00
26035;DHT22;13809;48.632;11.576;2023-07-13T23:28:37;23.20;29.10
26035;DHT22;13809;48.632;11.576;2023-07-13T23:33:41;22.90;29.10
26035;DHT22;13809;48.632;11.576;2023-07-13T23:38:45;22.80;29.40
26035;DHT22;13809;48.632;11.576;2023-07-13T23:43:49;22.70;30.00
26035;DHT22;13809;48.632;11.576;2023-07-13T23:48:58;22.60;29.80
26035;DHT22;13809;48.632;11.576;2023-07-13T23:54:09;22.70;30.70
26035;DHT22;13809;48.632;11.576;2023-07-13T23:59:13;22.70;30.90
